Aviation Digital Data Service (ADDS)

Output produced by METARs form (0924 UTC 19 November 2018)
found at http://www.aviationweather.gov/metar/data/
 
ROAH 190900Z 02019KT 9999 VCSH SCT015 BKN020 23/17 Q1017 RMK 3CU015 6CU020 A3003
ROAH 190830Z 02018KT 9999 SCT015 BKN020 23/18 Q1016 RMK 3CU015 6CU020 A3002
TAF ROAH 190506Z 1906/2012 01018KT 9999 FEW020 BKN040